sensor_id;sensor_type;location;lat;lon;timestamp;temperature;humidity
19781;DHT22;10050;55.492;13.506;2022-12-20T00:01:52;4.50;99.90
19781;DHT22;10050;55.492;13.506;2022-12-20T00:04:18;4.60;99.90
19781;DHT22;10050;55.492;13.506;2022-12-20T00:06:44;4.60;99.90
19781;DHT22;10050;55.492;13.506;2022-12-20T00:09:11;4.60;99.90
19781;DHT22;10050;55.492;13.506;2022-12-20T00:11:39;4.60;99.90
19781;DHT22;10050;55.492;13.506;2022-12-20T00:14:06;4.60;99.90
19781;DHT22;10050;55.492;13.506;2022-12-20T00:16:31;4.60;99.90
19781;DHT22;10050;55.492;13.506;2022-12-20T00:19:00;4.60;99.90
19781;DHT22;10050;55.492;13.506;2022-12-20T00:21:27;4.60;99.90
19781;DHT22;10050;55.492;13.506;2022-12-20T00:23:53;4.60;99.90
19781;DHT22;10050;55.492;13.506;2022-12-20T00:26:21;4.60;99.90
19781;DHT22;10050;55.492;13.506;2022-12-20T00:28:47;4.60;99.90
19781;DHT22;10050;55.492;13.506;2022-12-20T00:31:15;4.60;99.90
19781;DHT22;10050;55.492;13.506;2022-12-20T00:33:44;4.60;99.90
19781;DHT22;10050;55.492;13.506;2022-12-20T00:36:10;4.60;99.90
19781;DHT22;10050;55.492;13.506;2022-12-20T00:38:36;4.60;99.90
19781;DHT22;10050;55.492;13.506;2022-12-20T00:41:08;4.60;99.90
19781;DHT22;10050;55.492;13.506;2022-12-20T00:43:34;4.60;99.90
19781;DHT22;10050;55.492;13.506;2022-12-20T00:46:01;4.60;99.90
19781;DHT22;10050;55.492;13.506;2022-12-20T00:48:28;4.60;99.90
19781;DHT22;10050;55.492;13.506;2022-12-20T00:51:01;4.60;99.90
19781;DHT22;10050;55.492;13.506;2022-12-20T00:53:28;4.60;99.90
19781;DHT22;10050;55.492;13.506;2022-12-20T00:55:54;4.60;99.90
19781;DHT22;10050;55.492;13.506;2022-12-20T00:58:20;4.60;99.90
19781;DHT22;10050;55.492;13.506;2022-12-20T01:00:46;4.70;99.90
19781;DHT22;10050;55.492;13.506;2022-12-20T01:03:12;4.60;99.90
19781;DHT22;10050;55.492;13.506;2022-12-20T01:05:37;4.60;99.90
19781;DHT22;10050;55.492;13.506;2022-12-20T01:08:04;4.60;99.90
19781;DHT22;10050;55.492;13.506;2022-12-20T01:10:30;4.70;99.90
19781;DHT22;10050;55.492;13.506;2022-12-20T01:12:56;4.70;99.90
19781;DHT22;10050;55.492;13.506;2022-12-20T01:15:21;4.70;99.90
19781;DHT22;10050;55.492;13.506;2022-12-20T01:17:47;4.70;99.90
19781;DHT22;10050;55.492;13.506;2022-12-20T01:20:13;4.70;99.90
19781;DHT22;10050;55.492;13.506;2022-12-20T01:22:39;4.70;99.90
19781;DHT22;10050;55.492;13.506;2022-12-20T01:25:05;4.70;99.90
19781;DHT22;10050;55.492;13.506;2022-12-20T01:27:31;4.70;99.90
19781;DHT22;10050;55.492;13.506;2022-12-20T01:29:56;4.70;99.90
19781;DHT22;10050;55.492;13.506;2022-12-20T01:32:22;4.70;99.90
19781;DHT22;10050;55.492;13.506;2022-12-20T01:34:47;4.70;99.90
19781;DHT22;10050;55.492;13.506;2022-12-20T01:37:13;4.70;99.90
19781;DHT22;10050;55.492;13.506;2022-12-20T01:39:39;4.70;99.90
19781;DHT22;10050;55.492;13.506;2022-12-20T01:42:04;4.70;99.90
19781;DHT22;10050;55.492;13.506;2022-12-20T01:46:56;4.70;99.90
19781;DHT22;10050;55.492;13.506;2022-12-20T01:49:26;4.70;99.90
19781;DHT22;10050;55.492;13.506;2022-12-20T01:52:22;4.70;99.90
19781;DHT22;10050;55.492;13.506;2022-12-20T01:54:54;4.70;99.90
19781;DHT22;10050;55.492;13.506;2022-12-20T01:57:24;4.70;99.90
19781;DHT22;10050;55.492;13.506;2022-12-20T01:59:53;4.70;99.90
19781;DHT22;10050;55.492;13.506;2022-12-20T02:02:20;4.70;99.90
19781;DHT22;10050;55.492;13.506;2022-12-20T02:04:45;4.70;99.90
19781;DHT22;10050;55.492;13.506;2022-12-20T02:07:15;4.70;99.90
19781;DHT22;10050;55.492;13.506;2022-12-20T02:09:42;4.70;99.90
19781;DHT22;10050;55.492;13.506;2022-12-20T02:12:14;4.70;99.90
19781;DHT22;10050;55.492;13.506;2022-12-20T02:17:19;4.70;99.90
19781;DHT22;10050;55.492;13.506;2022-12-20T02:20:44;4.70;99.90
19781;DHT22;10050;55.492;13.506;2022-12-20T02:23:36;4.70;99.90
19781;DHT22;10050;55.492;13.506;2022-12-20T02:26:29;4.80;99.90
19781;DHT22;10050;55.492;13.506;2022-12-20T02:31:36;4.80;99.90
19781;DHT22;10050;55.492;13.506;2022-12-20T02:34:04;4.80;99.90
19781;DHT22;10050;55.492;13.506;2022-12-20T02:36:31;4.80;99.90
19781;DHT22;10050;55.492;13.506;2022-12-20T02:38:57;4.80;99.90
19781;DHT22;10050;55.492;13.506;2022-12-20T02:41:29;4.80;99.90
19781;DHT22;10050;55.492;13.506;2022-12-20T02:44:02;4.80;99.90
19781;DHT22;10050;55.492;13.506;2022-12-20T02:46:47;4.80;99.90
19781;DHT22;10050;55.492;13.506;2022-12-20T02:49:16;4.80;99.90
19781;DHT22;10050;55.492;13.506;2022-12-20T02:51:45;4.80;99.90
19781;DHT22;10050;55.492;13.506;2022-12-20T02:54:12;4.80;99.90
19781;DHT22;10050;55.492;13.506;2022-12-20T02:56:43;4.80;99.90
19781;DHT22;10050;55.492;13.506;2022-12-20T02:59:19;4.80;99.90
19781;DHT22;10050;55.492;13.506;2022-12-20T03:01:51;4.90;99.90
19781;DHT22;10050;55.492;13.506;2022-12-20T03:04:20;4.90;99.90
19781;DHT22;10050;55.492;13.506;2022-12-20T03:07:09;4.90;99.90
19781;DHT22;10050;55.492;13.506;2022-12-20T03:09:37;4.90;99.90
19781;DHT22;10050;55.492;13.506;2022-12-20T03:12:04;4.90;99.90
19781;DHT22;10050;55.492;13.506;2022-12-20T03:14:30;4.90;99.90
19781;DHT22;10050;55.492;13.506;2022-12-20T03:16:56;4.90;99.90
19781;DHT22;10050;55.492;13.506;2022-12-20T03:19:22;4.90;99.90
19781;DHT22;10050;55.492;13.506;2022-12-20T03:21:47;4.90;99.90
19781;DHT22;10050;55.492;13.506;2022-12-20T03:24:13;4.90;99.90
19781;DHT22;10050;55.492;13.506;2022-12-20T03:26:39;4.90;99.90
19781;DHT22;10050;55.492;13.506;2022-12-20T03:29:05;4.90;99.90
19781;DHT22;10050;55.492;13.506;2022-12-20T03:31:31;4.90;99.90
19781;DHT22;10050;55.492;13.506;2022-12-20T03:33:57;4.90;99.90
19781;DHT22;10050;55.492;13.506;2022-12-20T03:36:23;4.90;99.90
19781;DHT22;10050;55.492;13.506;2022-12-20T03:38:50;5.00;99.90
19781;DHT22;10050;55.492;13.506;2022-12-20T03:41:15;4.90;99.90
19781;DHT22;10050;55.492;13.506;2022-12-20T03:43:41;4.90;99.90
19781;DHT22;10050;55.492;13.506;2022-12-20T03:46:07;4.90;99.90
19781;DHT22;10050;55.492;13.506;2022-12-20T03:48:32;4.90;99.90
19781;DHT22;10050;55.492;13.506;2022-12-20T03:50:58;4.90;99.90
19781;DHT22;10050;55.492;13.506;2022-12-20T03:53:24;5.00;99.90
19781;DHT22;10050;55.492;13.506;2022-12-20T03:55:49;4.90;99.90
19781;DHT22;10050;55.492;13.506;2022-12-20T03:58:15;4.90;99.90
19781;DHT22;10050;55.492;13.506;2022-12-20T04:00:41;4.90;99.90
19781;DHT22;10050;55.492;13.506;2022-12-20T04:03:06;4.90;99.90
19781;DHT22;10050;55.492;13.506;2022-12-20T04:05:32;5.00;99.90
19781;DHT22;10050;55.492;13.506;2022-12-20T04:07:58;5.00;99.90
19781;DHT22;10050;55.492;13.506;2022-12-20T04:10:23;5.00;99.90
19781;DHT22;10050;55.492;13.506;2022-12-20T04:12:49;5.00;99.90
19781;DHT22;10050;55.492;13.506;2022-12-20T04:15:14;5.00;99.90
19781;DHT22;10050;55.492;13.506;2022-12-20T04:17:40;5.00;99.90
19781;DHT22;10050;55.492;13.506;2022-12-20T04:20:06;5.00;99.90
19781;DHT22;10050;55.492;13.506;2022-12-20T04:22:48;5.00;99.90
19781;DHT22;10050;55.492;13.506;2022-12-20T04:25:16;5.00;99.90
19781;DHT22;10050;55.492;13.506;2022-12-20T04:27:43;5.00;99.90
19781;DHT22;10050;55.492;13.506;2022-12-20T04:30:09;5.00;99.90
19781;DHT22;10050;55.492;13.506;2022-12-20T04:32:35;5.00;99.90
19781;DHT22;10050;55.492;13.506;2022-12-20T04:35:01;5.00;99.90
19781;DHT22;10050;55.492;13.506;2022-12-20T04:37:29;5.00;99.90
19781;DHT22;10050;55.492;13.506;2022-12-20T04:39:55;5.00;99.90
19781;DHT22;10050;55.492;13.506;2022-12-20T04:42:21;5.00;99.90
19781;DHT22;10050;55.492;13.506;2022-12-20T04:44:46;5.00;99.90
19781;DHT22;10050;55.492;13.506;2022-12-20T04:47:12;5.10;99.90
19781;DHT22;10050;55.492;13.506;2022-12-20T04:49:37;5.00;99.90
19781;DHT22;10050;55.492;13.506;2022-12-20T04:52:03;5.00;99.90
19781;DHT22;10050;55.492;13.506;2022-12-20T04:54:47;5.00;99.90
19781;DHT22;10050;55.492;13.506;2022-12-20T04:57:13;5.00;99.90
19781;DHT22;10050;55.492;13.506;2022-12-20T04:59:39;5.00;99.90
19781;DHT22;10050;55.492;13.506;2022-12-20T05:02:04;5.00;99.90
19781;DHT22;10050;55.492;13.506;2022-12-20T05:04:30;5.10;99.90
19781;DHT22;10050;55.492;13.506;2022-12-20T05:06:55;5.10;99.90
19781;DHT22;10050;55.492;13.506;2022-12-20T05:09:21;5.10;99.90
19781;DHT22;10050;55.492;13.506;2022-12-20T05:11:47;5.10;99.90
19781;DHT22;10050;55.492;13.506;2022-12-20T05:14:12;5.00;99.90
19781;DHT22;10050;55.492;13.506;2022-12-20T05:16:38;5.00;99.90
19781;DHT22;10050;55.492;13.506;2022-12-20T05:19:04;5.10;99.90
19781;DHT22;10050;55.492;13.506;2022-12-20T05:21:30;5.10;99.90
19781;DHT22;10050;55.492;13.506;2022-12-20T05:24:14;5.10;99.90
19781;DHT22;10050;55.492;13.506;2022-12-20T05:26:58;5.10;99.90
19781;DHT22;10050;55.492;13.506;2022-12-20T05:29:23;5.10;99.90
19781;DHT22;10050;55.492;13.506;2022-12-20T05:31:49;5.10;99.90
19781;DHT22;10050;55.492;13.506;2022-12-20T05:34:15;5.10;99.90
19781;DHT22;10050;55.492;13.506;2022-12-20T05:36:40;5.10;99.90
19781;DHT22;10050;55.492;13.506;2022-12-20T05:39:06;5.10;99.90
19781;DHT22;10050;55.492;13.506;2022-12-20T05:41:32;5.10;99.90
19781;DHT22;10050;55.492;13.506;2022-12-20T05:43:57;5.10;99.90
19781;DHT22;10050;55.492;13.506;2022-12-20T05:46:23;5.10;99.90
19781;DHT22;10050;55.492;13.506;2022-12-20T05:48:49;5.20;99.90
19781;DHT22;10050;55.492;13.506;2022-12-20T05:51:14;5.20;99.90
19781;DHT22;10050;55.492;13.506;2022-12-20T05:53:40;5.20;99.90
19781;DHT22;10050;55.492;13.506;2022-12-20T05:56:06;5.20;99.90
19781;DHT22;10050;55.492;13.506;2022-12-20T05:58:32;5.20;99.90
19781;DHT22;10050;55.492;13.506;2022-12-20T06:01:02;5.20;99.90
19781;DHT22;10050;55.492;13.506;2022-12-20T06:03:28;5.20;99.90
19781;DHT22;10050;55.492;13.506;2022-12-20T06:05:54;5.30;99.90
19781;DHT22;10050;55.492;13.506;2022-12-20T06:08:19;5.30;99.90
19781;DHT22;10050;55.492;13.506;2022-12-20T06:10:48;5.30;99.90
19781;DHT22;10050;55.492;13.506;2022-12-20T06:13:14;5.30;99.90
19781;DHT22;10050;55.492;13.506;2022-12-20T06:15:39;5.30;99.90
19781;DHT22;10050;55.492;13.506;2022-12-20T06:18:06;5.30;99.90
19781;DHT22;10050;55.492;13.506;2022-12-20T06:20:33;5.30;99.90
19781;DHT22;10050;55.492;13.506;2022-12-20T06:22:59;5.30;99.90
19781;DHT22;10050;55.492;13.506;2022-12-20T06:25:25;5.30;99.90
19781;DHT22;10050;55.492;13.506;2022-12-20T06:27:50;5.30;99.90
19781;DHT22;10050;55.492;13.506;2022-12-20T06:30:16;5.30;99.90
19781;DHT22;10050;55.492;13.506;2022-12-20T06:32:42;5.30;99.90
19781;DHT22;10050;55.492;13.506;2022-12-20T06:35:08;5.30;99.90
19781;DHT22;10050;55.492;13.506;2022-12-20T06:37:34;5.30;99.90
19781;DHT22;10050;55.492;13.506;2022-12-20T06:40:00;5.30;99.90
19781;DHT22;10050;55.492;13.506;2022-12-20T06:42:26;5.30;99.90
19781;DHT22;10050;55.492;13.506;2022-12-20T06:44:52;5.30;99.90
19781;DHT22;10050;55.492;13.506;2022-12-20T06:47:18;5.40;99.90
19781;DHT22;10050;55.492;13.506;2022-12-20T06:49:43;5.40;99.90
19781;DHT22;10050;55.492;13.506;2022-12-20T06:52:09;5.40;99.90
19781;DHT22;10050;55.492;13.506;2022-12-20T06:54:34;5.40;99.90
19781;DHT22;10050;55.492;13.506;2022-12-20T06:57:00;5.40;99.90
19781;DHT22;10050;55.492;13.506;2022-12-20T06:59:25;5.40;99.90
19781;DHT22;10050;55.492;13.506;2022-12-20T07:01:51;5.40;99.90
19781;DHT22;10050;55.492;13.506;2022-12-20T07:04:17;5.40;99.90
19781;DHT22;10050;55.492;13.506;2022-12-20T07:06:42;5.40;99.90
19781;DHT22;10050;55.492;13.506;2022-12-20T07:09:08;5.40;99.90
19781;DHT22;10050;55.492;13.506;2022-12-20T07:11:34;5.40;99.90
19781;DHT22;10050;55.492;13.506;2022-12-20T07:13:59;5.40;99.90
19781;DHT22;10050;55.492;13.506;2022-12-20T07:16:25;5.40;99.90
19781;DHT22;10050;55.492;13.506;2022-12-20T07:18:52;5.40;99.90
19781;DHT22;10050;55.492;13.506;2022-12-20T07:21:19;5.40;99.90
19781;DHT22;10050;55.492;13.506;2022-12-20T07:23:45;5.40;99.90
19781;DHT22;10050;55.492;13.506;2022-12-20T07:26:12;5.40;99.90
19781;DHT22;10050;55.492;13.506;2022-12-20T07:28:38;5.40;99.90
19781;DHT22;10050;55.492;13.506;2022-12-20T07:31:03;5.40;99.90
19781;DHT22;10050;55.492;13.506;2022-12-20T07:33:30;5.50;99.90
19781;DHT22;10050;55.492;13.506;2022-12-20T07:36:04;5.50;99.90
19781;DHT22;10050;55.492;13.506;2022-12-20T07:38:30;5.50;99.90
19781;DHT22;10050;55.492;13.506;2022-12-20T07:40:56;5.50;99.90
19781;DHT22;10050;55.492;13.506;2022-12-20T07:43:22;5.50;99.90
19781;DHT22;10050;55.492;13.506;2022-12-20T07:45:47;5.50;99.90
19781;DHT22;10050;55.492;13.506;2022-12-20T07:48:13;5.50;99.90
19781;DHT22;10050;55.492;13.506;2022-12-20T07:50:39;5.50;99.90
19781;DHT22;10050;55.492;13.506;2022-12-20T07:53:06;5.50;99.90
19781;DHT22;10050;55.492;13.506;2022-12-20T07:55:35;5.50;99.90
19781;DHT22;10050;55.492;13.506;2022-12-20T07:58:03;5.50;99.90
19781;DHT22;10050;55.492;13.506;2022-12-20T08:00:31;5.50;99.90
19781;DHT22;10050;55.492;13.506;2022-12-20T08:03:07;5.50;99.90
19781;DHT22;10050;55.492;13.506;2022-12-20T08:05:37;5.50;99.90
19781;DHT22;10050;55.492;13.506;2022-12-20T08:08:03;5.50;99.90
19781;DHT22;10050;55.492;13.506;2022-12-20T08:10:30;5.50;99.90
19781;DHT22;10050;55.492;13.506;2022-12-20T08:12:56;5.60;99.90
19781;DHT22;10050;55.492;13.506;2022-12-20T08:15:23;5.60;99.90
19781;DHT22;10050;55.492;13.506;2022-12-20T08:17:49;5.60;99.90
19781;DHT22;10050;55.492;13.506;2022-12-20T08:20:15;5.60;99.90
19781;DHT22;10050;55.492;13.506;2022-12-20T08:22:41;5.60;99.90
19781;DHT22;10050;55.492;13.506;2022-12-20T08:25:09;5.60;99.90
19781;DHT22;10050;55.492;13.506;2022-12-20T08:27:36;5.60;99.90
19781;DHT22;10050;55.492;13.506;2022-12-20T08:30:02;5.70;99.90
19781;DHT22;10050;55.492;13.506;2022-12-20T08:32:28;5.60;99.90
19781;DHT22;10050;55.492;13.506;2022-12-20T08:34:54;5.70;99.90
19781;DHT22;10050;55.492;13.506;2022-12-20T08:37:20;5.70;99.90
19781;DHT22;10050;55.492;13.506;2022-12-20T08:39:45;5.70;99.90
19781;DHT22;10050;55.492;13.506;2022-12-20T08:42:11;5.70;99.90
19781;DHT22;10050;55.492;13.506;2022-12-20T08:44:37;5.70;99.90
19781;DHT22;10050;55.492;13.506;2022-12-20T08:47:02;5.70;99.90
19781;DHT22;10050;55.492;13.506;2022-12-20T08:49:28;5.70;99.90
19781;DHT22;10050;55.492;13.506;2022-12-20T08:51:54;5.70;99.90
19781;DHT22;10050;55.492;13.506;2022-12-20T08:54:19;5.70;99.90
19781;DHT22;10050;55.492;13.506;2022-12-20T08:56:45;5.70;99.90
19781;DHT22;10050;55.492;13.506;2022-12-20T08:59:11;5.80;99.90
19781;DHT22;10050;55.492;13.506;2022-12-20T09:01:36;5.80;99.90
19781;DHT22;10050;55.492;13.506;2022-12-20T09:04:03;5.80;99.90
19781;DHT22;10050;55.492;13.506;2022-12-20T09:06:29;5.80;99.90
19781;DHT22;10050;55.492;13.506;2022-12-20T09:08:55;5.90;99.90
19781;DHT22;10050;55.492;13.506;2022-12-20T09:11:23;5.80;99.90
19781;DHT22;10050;55.492;13.506;2022-12-20T09:13:50;5.80;99.90
19781;DHT22;10050;55.492;13.506;2022-12-20T09:16:19;5.80;99.90
19781;DHT22;10050;55.492;13.506;2022-12-20T09:18:53;5.90;99.90
19781;DHT22;10050;55.492;13.506;2022-12-20T09:21:20;5.90;99.90
19781;DHT22;10050;55.492;13.506;2022-12-20T09:23:46;5.90;99.90
19781;DHT22;10050;55.492;13.506;2022-12-20T09:26:15;5.90;99.90
19781;DHT22;10050;55.492;13.506;2022-12-20T09:28:42;5.90;99.90
19781;DHT22;10050;55.492;13.506;2022-12-20T09:31:13;5.90;99.90
19781;DHT22;10050;55.492;13.506;2022-12-20T09:33:40;5.90;99.90
19781;DHT22;10050;55.492;13.506;2022-12-20T09:36:09;6.00;99.90
19781;DHT22;10050;55.492;13.506;2022-12-20T09:38:35;6.00;99.90
19781;DHT22;10050;55.492;13.506;2022-12-20T09:41:03;6.00;99.90
19781;DHT22;10050;55.492;13.506;2022-12-20T09:43:31;6.00;99.90
19781;DHT22;10050;55.492;13.506;2022-12-20T09:46:00;6.10;99.90
19781;DHT22;10050;55.492;13.506;2022-12-20T09:48:37;6.10;99.90
19781;DHT22;10050;55.492;13.506;2022-12-20T09:56:31;6.10;99.90
19781;DHT22;10050;55.492;13.506;2022-12-20T09:59:03;6.10;99.90
19781;DHT22;10050;55.492;13.506;2022-12-20T10:01:32;6.10;99.90
19781;DHT22;10050;55.492;13.506;2022-12-20T10:04:01;6.10;99.90
19781;DHT22;10050;55.492;13.506;2022-12-20T10:12:18;6.20;99.90
19781;DHT22;10050;55.492;13.506;2022-12-20T10:23:29;6.20;99.90
19781;DHT22;10050;55.492;13.506;2022-12-20T10:25:58;6.20;99.90
19781;DHT22;10050;55.492;13.506;2022-12-20T10:28:33;6.20;99.90
19781;DHT22;10050;55.492;13.506;2022-12-20T10:31:19;6.20;99.90
19781;DHT22;10050;55.492;13.506;2022-12-20T10:33:45;6.20;99.90
19781;DHT22;10050;55.492;13.506;2022-12-20T10:36:30;6.30;99.90
19781;DHT22;10050;55.492;13.506;2022-12-20T10:38:58;6.30;99.90
19781;DHT22;10050;55.492;13.506;2022-12-20T10:41:47;6.40;99.90
19781;DHT22;10050;55.492;13.506;2022-12-20T10:46:50;6.40;99.90
19781;DHT22;10050;55.492;13.506;2022-12-20T10:57:02;6.40;99.90
19781;DHT22;10050;55.492;13.506;2022-12-20T10:59:37;6.40;99.90
19781;DHT22;10050;55.492;13.506;2022-12-20T11:02:39;6.40;99.90
19781;DHT22;10050;55.492;13.506;2022-12-20T11:07:50;6.40;99.90
19781;DHT22;10050;55.492;13.506;2022-12-20T11:10:23;6.40;99.90
19781;DHT22;10050;55.492;13.506;2022-12-20T11:13:00;6.40;99.90
19781;DHT22;10050;55.492;13.506;2022-12-20T11:15:30;6.40;99.90
19781;DHT22;10050;55.492;13.506;2022-12-20T11:18:11;6.40;99.90
19781;DHT22;10050;55.492;13.506;2022-12-20T11:21:20;6.40;99.90
19781;DHT22;10050;55.492;13.506;2022-12-20T11:24:09;6.50;99.90
19781;DHT22;10050;55.492;13.506;2022-12-20T11:27:02;6.50;99.90
19781;DHT22;10050;55.492;13.506;2022-12-20T11:29:39;6.50;99.90
19781;DHT22;10050;55.492;13.506;2022-12-20T11:42:53;6.50;99.90
19781;DHT22;10050;55.492;13.506;2022-12-20T11:55:59;6.50;99.90
19781;DHT22;10050;55.492;13.506;2022-12-20T11:58:32;6.50;99.90
19781;DHT22;10050;55.492;13.506;2022-12-20T12:01:26;6.60;99.90
19781;DHT22;10050;55.492;13.506;2022-12-20T12:04:18;6.60;99.90
19781;DHT22;10050;55.492;13.506;2022-12-20T12:07:25;6.60;99.90
19781;DHT22;10050;55.492;13.506;2022-12-20T12:12:24;6.60;99.90
19781;DHT22;10050;55.492;13.506;2022-12-20T12:17:58;6.60;99.90
19781;DHT22;10050;55.492;13.506;2022-12-20T12:23:20;6.70;99.90
19781;DHT22;10050;55.492;13.506;2022-12-20T12:25:46;6.70;99.90
19781;DHT22;10050;55.492;13.506;2022-12-20T12:28:13;6.70;99.90
19781;DHT22;10050;55.492;13.506;2022-12-20T12:30:44;6.70;99.90
19781;DHT22;10050;55.492;13.506;2022-12-20T12:33:22;6.70;99.90
19781;DHT22;10050;55.492;13.506;2022-12-20T12:43:54;6.70;99.90
19781;DHT22;10050;55.492;13.506;2022-12-20T12:46:27;6.70;99.90
19781;DHT22;10050;55.492;13.506;2022-12-20T12:49:11;6.70;99.90
19781;DHT22;10050;55.492;13.506;2022-12-20T12:51:43;6.70;99.90
19781;DHT22;10050;55.492;13.506;2022-12-20T12:54:21;6.70;99.90
19781;DHT22;10050;55.492;13.506;2022-12-20T12:56:52;6.70;99.90
19781;DHT22;10050;55.492;13.506;2022-12-20T13:05:00;6.80;99.90
19781;DHT22;10050;55.492;13.506;2022-12-20T13:07:41;6.80;99.90
19781;DHT22;10050;55.492;13.506;2022-12-20T13:17:55;6.80;99.90
19781;DHT22;10050;55.492;13.506;2022-12-20T13:20:30;6.80;99.90
19781;DHT22;10050;55.492;13.506;2022-12-20T13:25:47;6.80;99.90
19781;DHT22;10050;55.492;13.506;2022-12-20T13:33:46;6.90;99.90
19781;DHT22;10050;55.492;13.506;2022-12-20T13:38:55;6.90;99.90
19781;DHT22;10050;55.492;13.506;2022-12-20T13:43:52;6.90;99.90
19781;DHT22;10050;55.492;13.506;2022-12-20T13:49:02;6.90;99.90
19781;DHT22;10050;55.492;13.506;2022-12-20T13:51:29;6.90;99.90
19781;DHT22;10050;55.492;13.506;2022-12-20T13:53:57;6.90;99.90
19781;DHT22;10050;55.492;13.506;2022-12-20T13:58:55;6.90;99.90
19781;DHT22;10050;55.492;13.506;2022-12-20T14:01:23;6.90;99.90
19781;DHT22;10050;55.492;13.506;2022-12-20T14:03:50;6.90;99.90
19781;DHT22;10050;55.492;13.506;2022-12-20T14:06:18;6.90;99.90
19781;DHT22;10050;55.492;13.506;2022-12-20T14:08:50;6.90;99.90
19781;DHT22;10050;55.492;13.506;2022-12-20T14:11:22;6.80;99.90
19781;DHT22;10050;55.492;13.506;2022-12-20T14:14:00;6.90;99.90
19781;DHT22;10050;55.492;13.506;2022-12-20T14:16:28;6.90;99.90
19781;DHT22;10050;55.492;13.506;2022-12-20T14:19:00;6.90;99.90
19781;DHT22;10050;55.492;13.506;2022-12-20T14:21:28;6.80;99.90
19781;DHT22;10050;55.492;13.506;2022-12-20T14:23:55;6.90;99.90
19781;DHT22;10050;55.492;13.506;2022-12-20T14:26:33;6.80;99.90
19781;DHT22;10050;55.492;13.506;2022-12-20T14:29:00;6.80;99.90
19781;DHT22;10050;55.492;13.506;2022-12-20T14:36:31;6.80;99.90
19781;DHT22;10050;55.492;13.506;2022-12-20T14:38:58;6.90;99.90
19781;DHT22;10050;55.492;13.506;2022-12-20T14:41:36;6.90;99.90
19781;DHT22;10050;55.492;13.506;2022-12-20T14:44:21;6.90;99.90
19781;DHT22;10050;55.492;13.506;2022-12-20T14:46:49;6.90;99.90
19781;DHT22;10050;55.492;13.506;2022-12-20T14:49:28;6.90;99.90
19781;DHT22;10050;55.492;13.506;2022-12-20T14:52:15;6.90;99.90
19781;DHT22;10050;55.492;13.506;2022-12-20T15:00:14;6.90;99.90
19781;DHT22;10050;55.492;13.506;2022-12-20T15:02:45;7.00;99.90
19781;DHT22;10050;55.492;13.506;2022-12-20T15:10:41;7.00;99.90
19781;DHT22;10050;55.492;13.506;2022-12-20T15:13:15;7.00;99.90
19781;DHT22;10050;55.492;13.506;2022-12-20T15:15:41;7.00;99.90
19781;DHT22;10050;55.492;13.506;2022-12-20T15:18:14;7.00;99.90
19781;DHT22;10050;55.492;13.506;2022-12-20T15:20:41;7.00;99.90
19781;DHT22;10050;55.492;13.506;2022-12-20T15:23:15;7.00;99.90
19781;DHT22;10050;55.492;13.506;2022-12-20T15:25:42;7.00;99.90
19781;DHT22;10050;55.492;13.506;2022-12-20T15:28:20;7.10;99.90
19781;DHT22;10050;55.492;13.506;2022-12-20T15:30:47;7.10;99.90
19781;DHT22;10050;55.492;13.506;2022-12-20T15:33:20;7.10;99.90
19781;DHT22;10050;55.492;13.506;2022-12-20T15:35:47;7.10;99.90
19781;DHT22;10050;55.492;13.506;2022-12-20T15:38:14;7.10;99.90
19781;DHT22;10050;55.492;13.506;2022-12-20T15:40:45;7.10;99.90
19781;DHT22;10050;55.492;13.506;2022-12-20T15:43:13;7.10;99.90
19781;DHT22;10050;55.492;13.506;2022-12-20T15:45:41;7.10;99.90
19781;DHT22;10050;55.492;13.506;2022-12-20T15:48:13;7.10;99.90
19781;DHT22;10050;55.492;13.506;2022-12-20T15:50:42;7.10;99.90
19781;DHT22;10050;55.492;13.506;2022-12-20T15:53:13;7.10;99.90
19781;DHT22;10050;55.492;13.506;2022-12-20T15:55:39;7.10;99.90
19781;DHT22;10050;55.492;13.506;2022-12-20T15:58:05;7.10;99.90
19781;DHT22;10050;55.492;13.506;2022-12-20T16:00:31;7.10;99.90
19781;DHT22;10050;55.492;13.506;2022-12-20T16:02:56;7.10;99.90
19781;DHT22;10050;55.492;13.506;2022-12-20T16:05:23;7.10;99.90
19781;DHT22;10050;55.492;13.506;2022-12-20T16:07:49;7.10;99.90
19781;DHT22;10050;55.492;13.506;2022-12-20T16:10:14;7.10;99.90
19781;DHT22;10050;55.492;13.506;2022-12-20T16:12:41;7.10;99.90
19781;DHT22;10050;55.492;13.506;2022-12-20T16:15:27;7.10;99.90
19781;DHT22;10050;55.492;13.506;2022-12-20T16:17:52;7.10;99.90
19781;DHT22;10050;55.492;13.506;2022-12-20T16:20:18;7.10;99.90
19781;DHT22;10050;55.492;13.506;2022-12-20T16:22:44;7.10;99.90
19781;DHT22;10050;55.492;13.506;2022-12-20T16:25:26;7.10;99.90
19781;DHT22;10050;55.492;13.506;2022-12-20T16:27:52;7.10;99.90
19781;DHT22;10050;55.492;13.506;2022-12-20T16:30:18;7.10;99.90
19781;DHT22;10050;55.492;13.506;2022-12-20T16:32:44;7.10;99.90
19781;DHT22;10050;55.492;13.506;2022-12-20T16:35:23;7.10;99.90
19781;DHT22;10050;55.492;13.506;2022-12-20T16:37:49;7.10;99.90
19781;DHT22;10050;55.492;13.506;2022-12-20T16:40:15;7.10;99.90
19781;DHT22;10050;55.492;13.506;2022-12-20T16:42:40;7.10;99.90
19781;DHT22;10050;55.492;13.506;2022-12-20T16:45:14;7.10;99.90
19781;DHT22;10050;55.492;13.506;2022-12-20T16:47:40;7.10;99.90
19781;DHT22;10050;55.492;13.506;2022-12-20T16:50:06;7.10;99.90
19781;DHT22;10050;55.492;13.506;2022-12-20T16:52:32;7.10;99.90
19781;DHT22;10050;55.492;13.506;2022-12-20T16:55:05;7.10;99.90
19781;DHT22;10050;55.492;13.506;2022-12-20T16:57:30;7.10;99.90
19781;DHT22;10050;55.492;13.506;2022-12-20T16:59:57;7.10;99.90
19781;DHT22;10050;55.492;13.506;2022-12-20T17:02:29;7.20;99.90
19781;DHT22;10050;55.492;13.506;2022-12-20T17:04:57;7.20;99.90
19781;DHT22;10050;55.492;13.506;2022-12-20T17:07:23;7.20;99.90
19781;DHT22;10050;55.492;13.506;2022-12-20T17:09:49;7.20;99.90
19781;DHT22;10050;55.492;13.506;2022-12-20T17:12:20;7.20;99.90
19781;DHT22;10050;55.492;13.506;2022-12-20T17:14:46;7.20;99.90
19781;DHT22;10050;55.492;13.506;2022-12-20T17:17:12;7.20;99.90
19781;DHT22;10050;55.492;13.506;2022-12-20T17:19:38;7.20;99.90
19781;DHT22;10050;55.492;13.506;2022-12-20T17:22:05;7.20;99.90
19781;DHT22;10050;55.492;13.506;2022-12-20T17:24:30;7.20;99.90
19781;DHT22;10050;55.492;13.506;2022-12-20T17:26:56;7.20;99.90
19781;DHT22;10050;55.492;13.506;2022-12-20T17:29:22;7.20;99.90
19781;DHT22;10050;55.492;13.506;2022-12-20T17:31:48;7.20;99.90
19781;DHT22;10050;55.492;13.506;2022-12-20T17:34:27;7.20;99.90
19781;DHT22;10050;55.492;13.506;2022-12-20T17:36:55;7.20;99.90
19781;DHT22;10050;55.492;13.506;2022-12-20T17:39:22;7.20;99.90
19781;DHT22;10050;55.492;13.506;2022-12-20T17:41:48;7.20;99.90
19781;DHT22;10050;55.492;13.506;2022-12-20T17:44:26;7.20;99.90
19781;DHT22;10050;55.492;13.506;2022-12-20T17:46:53;7.20;99.90
19781;DHT22;10050;55.492;13.506;2022-12-20T17:49:19;7.20;99.90